Time;durP1;ratioP1;P1;durP2;ratioP2;P2;SDS_P1;SDS_P2;PMS_P1;PMS_P2;Temp;Humidity;BMP_temperature;BMP_pressure;BME280_temperature;BME280_humidity;BME280_pressure;Samples;Min_cycle;Max_cycle;Signal;HPM_P1;HPM_P2
2021/08/26 00:00:46;;;;;;;10.00;4.60;;;15.30;99.90;;;;;;5071391;28;20923;-79
2021/08/26 00:05:55;;;;;;;8.35;4.78;;;15.10;99.90;;;;;;5071665;28;20756;-80
2021/08/26 00:08:23;;;;;;;7.38;4.60;;;15.10;99.90;;;;;;5070897;28;20414;-78
2021/08/26 00:10:52;;;;;;;9.73;4.85;;;15.10;99.90;;;;;;5053373;28;20386;-82
2021/08/26 00:13:20;;;;;;;7.93;4.60;;;15.20;99.90;;;;;;5071243;28;20855;-81
2021/08/26 00:15:46;;;;;;;8.82;4.93;;;15.20;99.90;;;;;;5071414;28;20398;-80
2021/08/26 00:18:13;;;;;;;9.63;4.78;;;15.20;99.90;;;;;;5071508;28;20393;-80
2021/08/26 00:20:38;;;;;;;10.85;4.30;;;15.20;99.90;;;;;;5071257;28;20408;-79
2021/08/26 00:23:05;;;;;;;8.40;5.03;;;15.20;99.90;;;;;;5053294;28;20383;-82
2021/08/26 00:25:31;;;;;;;10.98;5.20;;;15.30;99.90;;;;;;5053179;28;20386;-78
2021/08/26 00:27:57;;;;;;;8.57;5.13;;;15.20;99.90;;;;;;5071221;28;20401;-80
2021/08/26 00:30:23;;;;;;;11.82;4.85;;;15.30;99.90;;;;;;5071318;28;20880;-83
2021/08/26 00:32:49;;;;;;;9.80;4.85;;;15.20;99.90;;;;;;5071118;28;20370;-79
2021/08/26 00:35:14;;;;;;;15.85;5.70;;;15.20;99.90;;;;;;5070977;28;20385;-79
2021/08/26 00:37:40;;;;;;;12.47;5.30;;;15.10;99.90;;;;;;5071083;28;20370;-82
2021/08/26 00:40:06;;;;;;;13.65;5.45;;;15.30;99.90;;;;;;5070975;28;20871;-77
2021/08/26 00:42:32;;;;;;;9.90;5.30;;;15.30;99.90;;;;;;5070916;28;20373;-81
2021/08/26 00:44:57;;;;;;;11.70;5.22;;;15.20;99.90;;;;;;5071265;28;20389;-80
2021/08/26 00:47:24;;;;;;;10.63;5.50;;;15.30;99.90;;;;;;5070827;28;20400;-81
2021/08/26 00:49:51;;;;;;;11.63;5.65;;;15.20;99.90;;;;;;5070407;28;20406;-80
2021/08/26 00:52:17;;;;;;;10.25;5.50;;;15.10;99.90;;;;;;5071096;28;20500;-78
2021/08/26 00:54:43;;;;;;;9.68;5.65;;;15.00;99.90;;;;;;5070738;28;20413;-79
2021/08/26 00:57:08;;;;;;;15.53;6.80;;;15.10;99.90;;;;;;5052775;28;20460;-80
2021/08/26 00:59:34;;;;;;;14.70;5.93;;;14.90;99.90;;;;;;5070500;28;20887;-80
2021/08/26 01:02:12;;;;;;;12.02;6.18;;;14.90;99.90;;;;;;5070446;28;20947;-81
2021/08/26 01:04:43;;;;;;;14.60;6.32;;;14.90;99.90;;;;;;5070583;28;20389;-80
2021/08/26 01:07:22;;;;;;;13.80;6.18;;;14.90;99.90;;;;;;5052365;28;20428;-79
2021/08/26 01:10:01;;;;;;;12.32;6.57;;;14.90;99.90;;;;;;5052240;28;20413;-79
2021/08/26 01:12:28;;;;;;;12.68;6.45;;;14.90;99.90;;;;;;5052163;28;20394;-79
2021/08/26 01:14:55;;;;;;;10.27;6.10;;;14.90;99.90;;;;;;5070415;28;20793;-80
2021/08/26 01:17:26;;;;;;;13.68;6.82;;;14.90;99.90;;;;;;5070158;28;20395;-80
2021/08/26 01:19:53;;;;;;;14.27;6.75;;;14.90;99.90;;;;;;5070044;28;21067;-79
2021/08/26 01:22:21;;;;;;;18.35;6.68;;;14.80;99.90;;;;;;5070447;28;20473;-81
2021/08/26 01:24:52;;;;;;;14.88;6.65;;;14.80;99.90;;;;;;5069587;28;20456;-80
2021/08/26 01:27:18;;;;;;;14.80;6.85;;;14.80;99.90;;;;;;5070082;28;20843;-80
2021/08/26 01:29:46;;;;;;;16.60;6.57;;;14.80;99.90;;;;;;5070170;28;20406;-79
2021/08/26 01:32:14;;;;;;;13.23;6.35;;;14.80;99.90;;;;;;5070102;28;20377;-83
2021/08/26 01:34:40;;;;;;;17.88;7.10;;;14.80;99.90;;;;;;5070120;28;20464;-81
2021/08/26 01:37:06;;;;;;;15.83;6.70;;;14.80;99.90;;;;;;5070046;28;20524;-81
2021/08/26 01:39:31;;;;;;;17.33;6.75;;;14.80;99.90;;;;;;5070021;28;20382;-82
2021/08/26 01:41:57;;;;;;;16.08;6.63;;;14.80;99.90;;;;;;5069939;28;21186;-78
2021/08/26 01:44:29;;;;;;;19.97;7.57;;;14.80;99.90;;;;;;5069919;28;20371;-80
2021/08/26 01:47:04;;;;;;;17.63;7.53;;;14.90;99.90;;;;;;5051693;28;20752;-83
2021/08/26 01:49:30;;;;;;;17.77;7.22;;;14.80;99.90;;;;;;5051655;28;20385;-82
2021/08/26 01:51:55;;;;;;;17.60;7.25;;;14.80;99.90;;;;;;5069514;28;20747;-78
2021/08/26 01:54:21;;;;;;;19.03;7.17;;;14.90;99.90;;;;;;5069927;28;20405;-79
2021/08/26 01:56:47;;;;;;;18.48;7.22;;;14.90;99.90;;;;;;5051658;28;20405;-81
2021/08/26 01:59:12;;;;;;;18.77;7.38;;;14.90;99.90;;;;;;5069608;28;20410;-81
2021/08/26 02:01:38;;;;;;;15.33;6.83;;;14.90;99.90;;;;;;5069461;28;20497;-80
2021/08/26 02:04:04;;;;;;;16.15;7.30;;;14.90;99.90;;;;;;5069182;28;20470;-80
2021/08/26 02:06:30;;;;;;;19.23;7.78;;;14.90;99.90;;;;;;5069779;28;20994;-78
2021/08/26 02:08:55;;;;;;;19.42;7.78;;;14.80;99.90;;;;;;5069576;28;20834;-82
2021/08/26 02:11:21;;;;;;;20.13;7.37;;;14.80;99.90;;;;;;5069953;28;20884;-81
2021/08/26 02:13:46;;;;;;;23.33;7.65;;;14.80;99.90;;;;;;5069586;28;20370;-82
2021/08/26 02:16:14;;;;;;;21.83;7.80;;;14.90;99.90;;;;;;5051337;28;20462;-84
2021/08/26 02:18:41;;;;;;;20.17;8.98;;;14.70;99.90;;;;;;5051234;28;20382;-79
2021/08/26 02:21:07;;;;;;;19.48;7.65;;;14.70;99.90;;;;;;5069827;28;20432;-80
2021/08/26 02:23:33;;;;;;;21.33;7.88;;;14.60;99.90;;;;;;5070087;28;20401;-80
2021/08/26 02:25:58;;;;;;;20.03;8.13;;;14.60;99.90;;;;;;5069998;28;20469;-77
2021/08/26 02:28:24;;;;;;;19.30;7.83;;;14.60;99.90;;;;;;5052087;28;20385;-80
2021/08/26 02:30:50;;;;;;;18.98;7.75;;;14.70;99.90;;;;;;5069277;28;20429;-77
2021/08/26 02:33:15;;;;;;;19.77;8.17;;;14.60;99.90;;;;;;5069430;28;20453;-79
2021/08/26 02:35:41;;;;;;;18.20;7.63;;;14.60;99.90;;;;;;5068894;28;20461;-81
2021/08/26 02:38:06;;;;;;;23.43;8.10;;;14.60;99.90;;;;;;5069361;28;20421;-79
2021/08/26 02:40:32;;;;;;;23.23;8.00;;;14.60;99.90;;;;;;5069618;28;20374;-81
2021/08/26 02:42:57;;;;;;;18.63;8.07;;;14.60;99.90;;;;;;5069697;28;20431;-82
2021/08/26 02:45:23;;;;;;;21.77;7.90;;;14.60;99.90;;;;;;5069536;28;20835;-79
2021/08/26 02:47:49;;;;;;;18.05;7.72;;;14.60;99.90;;;;;;5069467;28;20373;-77
2021/08/26 02:50:14;;;;;;;21.80;7.80;;;14.60;99.90;;;;;;5069533;28;20378;-81
2021/08/26 02:52:40;;;;;;;21.75;8.15;;;14.60;99.90;;;;;;5069143;28;20374;-79
2021/08/26 02:55:05;;;;;;;22.60;8.27;;;14.50;99.90;;;;;;5069214;28;20923;-78
2021/08/26 02:57:31;;;;;;;22.10;8.10;;;14.60;99.90;;;;;;5069352;28;20393;-78
2021/08/26 02:59:57;;;;;;;19.17;7.80;;;14.60;99.90;;;;;;5068756;28;20378;-80
2021/08/26 03:02:22;;;;;;;21.57;8.13;;;14.60;99.90;;;;;;5050804;28;20435;-79
2021/08/26 03:04:48;;;;;;;23.93;8.87;;;14.50;99.90;;;;;;5068940;28;20736;-78
2021/08/26 03:07:13;;;;;;;23.93;8.40;;;14.50;99.90;;;;;;5069271;28;20453;-81
2021/08/26 03:09:39;;;;;;;23.77;8.60;;;14.50;99.90;;;;;;5068919;28;20475;-78
2021/08/26 03:12:05;;;;;;;22.63;8.23;;;14.60;99.90;;;;;;5068773;28;20394;-80
2021/08/26 03:14:32;;;;;;;21.15;8.27;;;14.50;99.90;;;;;;5050614;28;20390;-79
2021/08/26 03:16:58;;;;;;;24.53;8.63;;;14.40;99.90;;;;;;5050328;28;20751;-77
2021/08/26 03:19:23;;;;;;;20.47;8.83;;;14.40;99.90;;;;;;5068764;28;20530;-80
2021/08/26 03:21:49;;;;;;;23.50;9.27;;;14.40;99.90;;;;;;5068361;28;20369;-78
2021/08/26 03:24:15;;;;;;;20.03;8.20;;;14.40;99.90;;;;;;5068503;28;20469;-79
2021/08/26 03:26:40;;;;;;;21.60;9.10;;;14.50;99.90;;;;;;5068409;28;20778;-81
2021/08/26 03:29:06;;;;;;;21.97;8.77;;;14.50;99.90;;;;;;5050379;28;20413;-78
2021/08/26 03:31:31;;;;;;;24.27;8.95;;;14.50;99.90;;;;;;5068618;28;20382;-77
2021/08/26 03:33:57;;;;;;;27.10;8.95;;;14.50;99.90;;;;;;5050518;28;20431;-80
2021/08/26 03:36:26;;;;;;;23.60;9.50;;;14.50;99.90;;;;;;5068358;28;20402;-78
2021/08/26 03:38:53;;;;;;;24.30;9.07;;;14.50;99.90;;;;;;5050144;28;20382;-80
2021/08/26 03:41:19;;;;;;;26.38;9.30;;;14.60;99.90;;;;;;5068428;28;20393;-80
2021/08/26 03:43:44;;;;;;;24.65;9.10;;;14.50;99.90;;;;;;5068294;28;20375;-80
2021/08/26 03:46:10;;;;;;;25.67;9.23;;;14.60;99.90;;;;;;5069235;28;20460;-79
2021/08/26 03:48:35;;;;;;;26.25;10.30;;;14.60;99.90;;;;;;5071272;28;21118;-81
2021/08/26 03:51:02;;;;;;;27.23;10.53;;;14.40;99.90;;;;;;5072129;28;20887;-82
2021/08/26 03:53:27;;;;;;;25.33;10.95;;;14.40;99.90;;;;;;5071979;28;20386;-78
2021/08/26 03:55:53;;;;;;;28.03;10.07;;;14.40;99.90;;;;;;5071783;28;20394;-80
2021/08/26 03:58:18;;;;;;;28.90;9.75;;;14.50;99.90;;;;;;5071406;28;20855;-80
2021/08/26 04:00:44;;;;;;;25.67;10.03;;;14.50;99.90;;;;;;5071835;28;20370;-81
2021/08/26 04:03:10;;;;;;;28.27;9.88;;;14.50;99.90;;;;;;5053687;28;20378;-81
2021/08/26 04:05:35;;;;;;;27.10;11.53;;;14.60;99.90;;;;;;5071739;28;20449;-81
2021/08/26 04:08:01;;;;;;;28.23;10.55;;;14.50;99.90;;;;;;5071752;28;20393;-82
2021/08/26 04:10:26;;;;;;;31.20;10.70;;;14.60;99.90;;;;;;5053883;28;20378;-80
2021/08/26 04:12:52;;;;;;;29.65;10.55;;;14.60;99.90;;;;;;5071669;28;20370;-81
2021/08/26 04:15:17;;;;;;;24.27;10.47;;;14.50;99.90;;;;;;5071707;28;20409;-79
2021/08/26 04:17:43;;;;;;;27.60;10.77;;;14.60;99.90;;;;;;5053340;28;20881;-80
2021/08/26 04:20:09;;;;;;;24.27;10.83;;;14.50;99.90;;;;;;5053361;28;20881;-80
2021/08/26 04:22:34;;;;;;;26.77;11.20;;;14.40;99.90;;;;;;5071694;28;20381;-82
2021/08/26 04:25:00;;;;;;;27.50;11.53;;;14.40;99.90;;;;;;5071554;28;20453;-79
2021/08/26 04:27:25;;;;;;;27.17;11.07;;;14.40;99.90;;;;;;5052925;28;20486;-81
2021/08/26 04:29:51;;;;;;;29.10;10.87;;;14.40;99.90;;;;;;5071285;28;20370;-78
2021/08/26 04:32:17;;;;;;;27.27;11.65;;;14.50;99.90;;;;;;5071248;28;20480;-82
2021/08/26 04:34:42;;;;;;;28.83;11.00;;;14.50;99.90;;;;;;5053152;28;20386;-80
2021/08/26 04:37:08;;;;;;;30.23;11.57;;;14.50;99.90;;;;;;5070804;28;20394;-78
2021/08/26 04:39:33;;;;;;;28.20;11.47;;;14.50;99.90;;;;;;5071314;28;20377;-78
2021/08/26 04:41:59;;;;;;;29.70;11.20;;;14.50;99.90;;;;;;5070936;28;20375;-80
2021/08/26 04:44:25;;;;;;;24.90;10.60;;;14.60;99.90;;;;;;5053487;28;20394;-77
2021/08/26 04:46:50;;;;;;;29.37;11.97;;;14.70;99.90;;;;;;5070930;28;20469;-79
2021/08/26 04:49:16;;;;;;;28.85;11.50;;;14.60;99.90;;;;;;5070593;28;20366;-81
2021/08/26 04:51:41;;;;;;;28.70;10.57;;;14.80;99.90;;;;;;5070666;28;20362;-79
2021/08/26 04:54:07;;;;;;;28.23;11.60;;;14.80;99.90;;;;;;5070629;28;20405;-81
2021/08/26 04:56:33;;;;;;;31.70;12.13;;;14.80;99.90;;;;;;5070674;28;20756;-81
2021/08/26 04:58:58;;;;;;;31.17;11.40;;;14.70;99.90;;;;;;5069603;28;20381;-82
2021/08/26 05:01:24;;;;;;;28.80;11.23;;;14.60;99.90;;;;;;5070848;28;20886;-80
2021/08/26 05:03:50;;;;;;;38.45;12.95;;;14.60;99.90;;;;;;5071160;28;20859;-80
2021/08/26 05:06:15;;;;;;;31.90;12.13;;;14.60;99.90;;;;;;5070612;28;20431;-81
2021/08/26 05:08:41;;;;;;;34.45;12.02;;;14.70;99.90;;;;;;5070041;28;20382;-79
2021/08/26 05:11:06;;;;;;;33.00;12.23;;;14.70;99.90;;;;;;5070684;28;20740;-79
2021/08/26 05:13:32;;;;;;;32.28;11.63;;;14.80;99.90;;;;;;5070322;28;20378;-81
2021/08/26 05:15:58;;;;;;;27.07;11.27;;;14.80;99.90;;;;;;5070351;28;20413;-79
2021/08/26 05:18:23;;;;;;;27.42;11.10;;;14.80;99.90;;;;;;5070349;28;20383;-80
2021/08/26 05:20:49;;;;;;;27.33;11.10;;;14.90;99.90;;;;;;5070104;28;20431;-79
2021/08/26 05:23:14;;;;;;;31.55;11.70;;;14.90;99.90;;;;;;5070561;28;20385;-80
2021/08/26 05:25:40;;;;;;;29.40;11.95;;;14.90;99.90;;;;;;5070335;28;20377;-79
2021/08/26 05:28:05;;;;;;;30.33;11.57;;;14.90;99.90;;;;;;5069988;28;20381;-80
2021/08/26 05:30:31;;;;;;;31.27;11.73;;;14.90;99.90;;;;;;5070008;28;20414;-81
2021/08/26 05:32:57;;;;;;;29.27;11.73;;;14.90;99.90;;;;;;5070624;28;20427;-79
2021/08/26 05:35:23;;;;;;;29.27;10.88;;;15.00;99.90;;;;;;5069912;28;20382;-77
2021/08/26 05:37:49;;;;;;;33.83;11.13;;;15.10;99.90;;;;;;5052313;28;20382;-81
2021/08/26 05:40:14;;;;;;;30.23;11.85;;;15.20;99.90;;;;;;5070394;28;20374;-82
2021/08/26 05:42:40;;;;;;;35.63;12.13;;;15.20;99.90;;;;;;5070527;28;20868;-81
2021/08/26 05:45:06;;;;;;;30.02;10.90;;;15.20;99.90;;;;;;5069976;28;20382;-80
2021/08/26 05:47:32;;;;;;;27.42;11.07;;;15.30;99.90;;;;;;5069754;28;20428;-81
2021/08/26 05:49:58;;;;;;;31.65;11.57;;;15.30;99.90;;;;;;5070026;28;20382;-79
2021/08/26 05:52:23;;;;;;;33.53;12.02;;;15.30;99.90;;;;;;5070252;28;20416;-82
2021/08/26 05:54:49;;;;;;;31.27;12.53;;;15.30;99.90;;;;;;5052288;28;20385;-78
2021/08/26 05:57:15;;;;;;;39.65;12.70;;;15.20;99.90;;;;;;5070001;28;20960;-81
2021/08/26 05:59:40;;;;;;;30.20;11.80;;;15.30;99.90;;;;;;5070172;28;20374;-78
2021/08/26 06:02:06;;;;;;;32.25;11.25;;;15.30;99.90;;;;;;5069846;28;20362;-80
2021/08/26 06:04:31;;;;;;;26.60;10.93;;;15.50;99.90;;;;;;5052493;28;20867;-80
2021/08/26 06:06:57;;;;;;;31.90;11.23;;;15.50;99.90;;;;;;5069592;28;20378;-80
2021/08/26 06:09:23;;;;;;;33.37;12.17;;;15.50;99.90;;;;;;5069704;28;20378;-77
2021/08/26 06:11:48;;;;;;;29.38;11.27;;;15.50;99.90;;;;;;5069892;28;20389;-81
2021/08/26 06:14:14;;;;;;;33.63;10.87;;;15.50;99.90;;;;;;5069898;28;20389;-81
2021/08/26 06:16:39;;;;;;;30.87;10.97;;;15.60;99.90;;;;;;5069193;28;20402;-80
2021/08/26 06:19:05;;;;;;;31.80;11.10;;;15.50;99.90;;;;;;5069952;28;20386;-82
2021/08/26 06:21:31;;;;;;;28.53;10.83;;;15.60;99.90;;;;;;5070780;28;20371;-80
2021/08/26 06:23:58;;;;;;;29.77;10.85;;;15.60;99.90;;;;;;5070270;28;20462;-80
2021/08/26 06:26:24;;;;;;;29.83;10.80;;;15.60;99.90;;;;;;5070878;28;20382;-80
2021/08/26 06:28:50;;;;;;;31.17;10.85;;;15.60;99.90;;;;;;5051561;28;20794;-79
2021/08/26 06:31:15;;;;;;;25.63;10.13;;;15.60;99.90;;;;;;5070559;28;20401;-80
2021/08/26 06:33:41;;;;;;;29.83;10.23;;;15.60;99.90;;;;;;5071226;28;20382;-79
2021/08/26 06:36:07;;;;;;;28.55;9.93;;;15.90;99.90;;;;;;5072117;28;20406;-79
2021/08/26 06:38:32;;;;;;;27.67;9.97;;;16.10;99.90;;;;;;5070241;28;20708;-82
2021/08/26 06:40:58;;;;;;;29.45;9.25;;;16.20;99.90;;;;;;5071862;28;20366;-82
2021/08/26 06:43:23;;;;;;;28.60;9.20;;;16.30;99.90;;;;;;5070165;28;20864;-79
2021/08/26 06:45:49;;;;;;;28.83;9.82;;;16.20;99.90;;;;;;5070343;28;20370;-82
2021/08/26 06:48:14;;;;;;;29.00;9.87;;;16.30;99.90;;;;;;5070598;28;20366;-78
2021/08/26 06:50:40;;;;;;;26.30;8.65;;;16.30;99.90;;;;;;5070096;28;20468;-81
2021/08/26 06:53:06;;;;;;;24.13;8.20;;;16.50;99.90;;;;;;5066511;28;20382;-82
2021/08/26 06:55:31;;;;;;;23.50;8.13;;;16.90;99.90;;;;;;5069118;28;20374;-80
2021/08/26 06:57:57;;;;;;;20.50;7.53;;;17.10;99.90;;;;;;5051703;28;20706;-79
2021/08/26 07:00:23;;;;;;;24.03;7.83;;;17.40;99.90;;;;;;5070703;28;20710;-81
2021/08/26 07:02:48;;;;;;;22.47;7.60;;;17.40;99.90;;;;;;5051705;28;20391;-83
2021/08/26 07:05:14;;;;;;;21.00;7.38;;;17.40;99.90;;;;;;5069815;28;20422;-81
2021/08/26 07:07:40;;;;;;;20.02;7.65;;;17.30;99.90;;;;;;5069236;28;20386;-81
2021/08/26 07:10:06;;;;;;;19.07;7.43;;;17.30;99.90;;;;;;5068792;28;20381;-80
2021/08/26 07:12:31;;;;;;;20.98;7.45;;;17.40;99.90;;;;;;5051676;28;20382;-80
2021/08/26 07:14:59;;;;;;;20.10;6.85;;;17.80;99.90;;;;;;5068443;28;20382;-82
2021/08/26 07:17:25;;;;;;;19.20;6.00;;;18.10;99.90;;;;;;5069330;28;20398;-81
2021/08/26 07:19:51;;;;;;;17.73;6.00;;;18.00;99.90;;;;;;5069608;28;20724;-79
2021/08/26 07:22:17;;;;;;;17.02;6.53;;;17.80;99.90;;;;;;5070370;28;20392;-81
2021/08/26 07:24:43;;;;;;;22.65;6.75;;;17.50;99.90;;;;;;5073462;28;20439;-79
2021/08/26 07:27:09;;;;;;;20.08;6.50;;;17.20;99.90;;;;;;5073241;28;20366;-83
2021/08/26 07:29:34;;;;;;;19.08;6.00;;;17.40;99.90;;;;;;5072834;28;20453;-80
2021/08/26 07:32:00;;;;;;;21.30;6.23;;;17.70;99.90;;;;;;5070574;28;20494;-81
2021/08/26 07:34:26;;;;;;;14.25;5.93;;;18.00;99.90;;;;;;5073516;28;20389;-80
2021/08/26 07:36:51;;;;;;;18.87;5.97;;;18.30;99.90;;;;;;5072287;28;20733;-79
2021/08/26 07:39:17;;;;;;;17.53;5.47;;;18.60;99.90;;;;;;5072670;28;20382;-82
2021/08/26 07:41:42;;;;;;;16.95;5.82;;;18.80;99.90;;;;;;5055187;28;20436;-83
2021/08/26 07:44:08;;;;;;;14.37;4.73;;;18.70;99.90;;;;;;5074175;28;20447;-82
2021/08/26 07:46:34;;;;;;;14.10;5.15;;;18.60;99.90;;;;;;5055645;28;20427;-81
2021/08/26 07:49:00;;;;;;;14.25;5.20;;;18.90;99.90;;;;;;5072189;28;20374;-81
2021/08/26 07:51:26;;;;;;;13.75;5.30;;;19.20;99.90;;;;;;5073917;28;20801;-81
2021/08/26 07:53:52;;;;;;;9.75;4.65;;;19.30;99.90;;;;;;5072625;28;20496;-78
2021/08/26 07:56:18;;;;;;;13.07;4.75;;;19.30;99.90;;;;;;5073197;28;20481;-80
2021/08/26 07:58:43;;;;;;;10.03;4.47;;;19.20;99.90;;;;;;5071739;28;20372;-82
2021/08/26 08:01:09;;;;;;;14.63;4.50;;;18.80;99.90;;;;;;5072063;28;20404;-82
2021/08/26 08:03:34;;;;;;;15.00;4.63;;;18.80;99.90;;;;;;5053911;28;20953;-80
2021/08/26 08:06:01;;;;;;;11.73;4.10;;;19.00;99.90;;;;;;5053103;28;20472;-83
2021/08/26 08:08:26;;;;;;;11.93;4.05;;;18.80;99.90;;;;;;5073204;28;20535;-83
2021/08/26 08:10:52;;;;;;;7.90;2.83;;;18.90;99.90;;;;;;5071805;28;20370;-84
2021/08/26 08:13:18;;;;;;;7.88;2.67;;;19.10;99.90;;;;;;5071886;28;20705;-80
2021/08/26 08:15:44;;;;;;;10.20;3.33;;;19.30;99.90;;;;;;5071685;28;20394;-82
2021/08/26 08:18:11;;;;;;;8.70;3.20;;;19.50;99.90;;;;;;5072025;28;20386;-82
2021/08/26 08:20:37;;;;;;;10.73;3.47;;;19.30;99.90;;;;;;5053157;28;20464;-83
2021/08/26 08:23:03;;;;;;;8.85;3.25;;;19.10;99.90;;;;;;5071494;28;20792;-81
2021/08/26 08:25:28;;;;;;;6.10;2.45;;;19.20;99.90;;;;;;5071299;28;20378;-79
2021/08/26 08:27:54;;;;;;;8.37;3.00;;;19.40;99.90;;;;;;5071379;28;20957;-77
2021/08/26 08:30:25;;;;;;;8.27;3.00;;;19.80;99.90;;;;;;5053418;28;20444;-78
2021/08/26 08:32:52;;;;;;;6.85;2.60;;;20.40;99.90;;;;;;5052944;28;20394;-83
2021/08/26 08:35:17;;;;;;;6.90;2.63;;;20.90;99.90;;;;;;5056309;28;20486;-83
2021/08/26 08:37:43;;;;;;;4.40;2.63;;;20.90;99.90;;;;;;5072193;28;20402;-81
2021/08/26 08:40:09;;;;;;;7.88;2.60;;;20.80;99.90;;;;;;5053797;28;20488;-82
2021/08/26 08:42:34;;;;;;;6.30;2.27;;;20.30;99.90;;;;;;5053743;28;20382;-81
2021/08/26 08:45:00;;;;;;;6.78;2.40;;;20.00;99.90;;;;;;5071356;28;20447;-78
2021/08/26 08:47:31;;;;;;;5.90;2.47;;;19.60;99.90;;;;;;5071992;28;20423;-83
2021/08/26 08:49:58;;;;;;;8.67;2.70;;;19.10;99.90;;;;;;5071732;28;20377;-80
2021/08/26 08:52:24;;;;;;;7.82;2.83;;;18.60;99.90;;;;;;5071518;28;20389;-82
2021/08/26 08:54:52;;;;;;;10.23;3.15;;;18.30;99.90;;;;;;5071372;28;20445;-80
2021/08/26 08:57:18;;;;;;;6.97;2.35;;;17.90;99.90;;;;;;5070598;28;20409;-83
2021/08/26 08:59:44;;;;;;;6.60;2.70;;;17.20;99.90;;;;;;5070559;28;20848;-80
2021/08/26 09:02:09;;;;;;;7.38;2.80;;;16.70;99.90;;;;;;5070346;28;20378;-83
2021/08/26 09:04:53;;;;;;;7.80;2.53;;;16.30;99.90;;;;;;5070980;28;20477;-82
2021/08/26 09:07:27;;;;;;;6.40;2.50;;;16.10;99.90;;;;;;5070025;28;20404;-81
2021/08/26 09:09:54;;;;;;;6.43;2.43;;;16.00;99.90;;;;;;5070525;28;20385;-84
2021/08/26 09:12:20;;;;;;;5.88;2.10;;;15.90;99.90;;;;;;5070059;28;20402;-86
2021/08/26 09:14:46;;;;;;;4.78;2.20;;;15.80;99.90;;;;;;5069511;28;20398;-83
2021/08/26 09:17:18;;;;;;;6.43;2.42;;;16.00;99.90;;;;;;5069949;28;20409;-83
2021/08/26 09:19:45;;;;;;;6.57;2.42;;;16.30;99.90;;;;;;5069897;28;20991;-80
2021/08/26 09:22:21;;;;;;;8.18;2.42;;;16.50;99.90;;;;;;5069697;28;20367;-79
2021/08/26 09:24:50;;;;;;;4.43;2.10;;;16.90;99.90;;;;;;5069974;28;20371;-82
2021/08/26 09:27:37;;;;;;;5.68;1.90;;;17.30;99.90;;;;;;5069886;28;20381;-82
2021/08/26 09:30:11;;;;;;;4.47;2.10;;;17.60;99.90;;;;;;5052151;28;20745;-82
2021/08/26 09:32:45;;;;;;;4.30;2.05;;;18.20;99.90;;;;;;5071035;28;20782;-83
2021/08/26 09:35:15;;;;;;;4.55;2.20;;;18.40;99.90;;;;;;5052726;28;20787;-81
2021/08/26 09:37:43;;;;;;;5.53;2.30;;;18.30;99.90;;;;;;5053463;28;20402;-82
2021/08/26 09:40:10;;;;;;;9.35;3.00;;;18.20;99.90;;;;;;5072316;28;20405;-79
2021/08/26 09:42:35;;;;;;;8.07;2.95;;;18.10;99.90;;;;;;5054663;28;20387;-78
2021/08/26 09:45:21;;;;;;;6.68;3.22;;;18.00;99.90;;;;;;5071780;28;20443;-80
2021/08/26 09:48:09;;;;;;;8.20;3.30;;;17.90;99.90;;;;;;5072615;28;20863;-79
2021/08/26 09:50:42;;;;;;;6.65;2.90;;;17.90;99.90;;;;;;5073633;28;20374;-81
2021/08/26 09:53:09;;;;;;;8.50;3.28;;;17.90;99.90;;;;;;5074022;28;20440;-82
2021/08/26 09:56:01;;;;;;;8.20;3.60;;;18.00;99.90;;;;;;5073365;28;20461;-82
2021/08/26 09:58:29;;;;;;;7.00;3.92;;;18.00;99.90;;;;;;5070961;28;20402;-82
2021/08/26 10:01:07;;;;;;;11.48;4.25;;;18.10;99.90;;;;;;5069180;28;20910;-84
2021/08/26 10:03:33;;;;;;;10.88;4.30;;;17.80;99.90;;;;;;5069237;28;20386;-81
2021/08/26 10:06:00;;;;;;;8.85;3.97;;;17.50;99.90;;;;;;5068928;28;20793;-83
2021/08/26 10:08:28;;;;;;;6.60;2.80;;;17.10;99.90;;;;;;5069083;28;20402;-83
2021/08/26 10:10:54;;;;;;;5.35;2.30;;;16.40;99.90;;;;;;5069010;28;20377;-84
2021/08/26 10:13:20;;;;;;;6.60;2.80;;;16.00;99.90;;;;;;5068977;28;20401;-82
2021/08/26 10:15:47;;;;;;;5.70;2.30;;;16.00;99.90;;;;;;5068688;28;20366;-81
2021/08/26 10:18:17;;;;;;;4.78;1.60;;;16.10;99.90;;;;;;5068851;28;20782;-79
2021/08/26 10:20:44;;;;;;;2.17;1.33;;;16.20;99.90;;;;;;5069162;28;20374;-83
2021/08/26 10:23:10;;;;;;;3.30;1.40;;;16.30;99.90;;;;;;5069063;28;20385;-81
2021/08/26 10:25:43;;;;;;;3.33;1.20;;;16.30;99.90;;;;;;5050372;28;20428;-81
2021/08/26 10:28:09;;;;;;;4.88;1.30;;;16.50;99.90;;;;;;5050735;28;20789;-81
2021/08/26 10:30:37;;;;;;;3.47;1.20;;;16.90;99.90;;;;;;5069213;28;20374;-81
2021/08/26 10:33:07;;;;;;;2.95;1.00;;;17.30;99.90;;;;;;5068594;28;20438;-83
2021/08/26 10:35:33;;;;;;;3.28;1.00;;;17.70;99.90;;;;;;5050533;28;20398;-81
2021/08/26 10:37:59;;;;;;;4.57;1.15;;;18.10;99.90;;;;;;5068366;28;20390;-82
2021/08/26 10:40:25;;;;;;;3.72;1.20;;;18.50;99.90;;;;;;5068393;28;20367;-85
2021/08/26 10:42:51;;;;;;;3.37;1.10;;;18.70;99.90;;;;;;5068548;28;20373;-83
2021/08/26 10:45:26;;;;;;;3.15;1.20;;;18.80;99.90;;;;;;5050213;28;20382;-81
2021/08/26 10:47:53;;;;;;;2.53;1.10;;;18.60;99.90;;;;;;5047877;28;20392;-83
2021/08/26 10:50:24;;;;;;;2.00;0.90;;;18.20;99.90;;;;;;5049434;28;20383;-86
2021/08/26 10:52:53;;;;;;;3.90;1.00;;;17.90;99.90;;;;;;5048658;28;20437;-83
2021/08/26 10:55:43;;;;;;;3.28;1.17;;;17.50;99.90;;;;;;5047564;28;20419;-82
2021/08/26 10:58:21;;;;;;;1.98;1.00;;;17.40;99.90;;;;;;5033210;28;20383;-78
2021/08/26 11:00:49;;;;;;;3.42;1.25;;;17.10;99.90;;;;;;5053150;28;20816;-80
2021/08/26 11:03:33;;;;;;;2.13;0.90;;;16.70;99.90;;;;;;5034913;28;20380;-84
2021/08/26 11:06:17;;;;;;;4.65;1.20;;;16.30;99.90;;;;;;5052743;28;20387;-84
2021/08/26 11:08:52;;;;;;;3.58;1.20;;;15.90;99.90;;;;;;5052942;28;20418;-81
2021/08/26 11:11:37;;;;;;;2.63;1.10;;;15.40;99.90;;;;;;5052687;28;20372;-81
2021/08/26 11:14:03;;;;;;;3.10;0.90;;;15.20;99.90;;;;;;5051348;28;20388;-80
2021/08/26 11:16:28;;;;;;;3.22;1.00;;;15.10;99.90;;;;;;5052467;28;20403;-85
2021/08/26 11:18:56;;;;;;;1.77;0.70;;;15.10;99.90;;;;;;5052091;28;20375;-82
2021/08/26 11:21:40;;;;;;;4.03;1.00;;;15.10;99.90;;;;;;5052493;28;20364;-84
2021/08/26 11:24:29;;;;;;;1.35;0.63;;;15.30;99.90;;;;;;5052371;28;20388;-86
2021/08/26 11:27:15;;;;;;;1.88;0.70;;;15.60;99.90;;;;;;5030741;28;20392;-85
2021/08/26 11:29:40;;;;;;;1.13;0.70;;;15.80;99.90;;;;;;5034776;28;20956;-83
2021/08/26 11:32:09;;;;;;;2.10;0.60;;;16.10;99.90;;;;;;5052882;28;20390;-81
2021/08/26 11:34:50;;;;;;;2.70;1.00;;;16.40;99.90;;;;;;5052366;28;20367;-83
2021/08/26 11:37:34;;;;;;;1.85;0.82;;;16.70;99.90;;;;;;5071019;28;20456;-82
2021/08/26 11:40:10;;;;;;;1.92;0.80;;;16.90;99.90;;;;;;5055137;28;20875;-80
2021/08/26 11:42:38;;;;;;;1.10;0.65;;;17.10;99.90;;;;;;5072574;28;20938;-80
2021/08/26 11:45:16;;;;;;;1.88;0.75;;;17.20;99.90;;;;;;5072398;28;20373;-82
2021/08/26 11:47:49;;;;;;;1.90;0.60;;;17.00;99.90;;;;;;5054505;28;20440;-83
2021/08/26 11:50:19;;;;;;;2.00;0.67;;;17.20;99.90;;;;;;5073216;28;20374;-80
2021/08/26 11:53:05;;;;;;;3.72;0.75;;;17.50;99.90;;;;;;5073646;28;20851;-86
2021/08/26 11:55:32;;;;;;;3.38;0.82;;;17.50;99.90;;;;;;5072894;28;20377;-79
2021/08/26 11:58:03;;;;;;;1.50;0.90;;;17.70;99.90;;;;;;5072748;28;20743;-81
2021/08/26 12:00:29;;;;;;;3.13;0.80;;;17.90;99.90;;;;;;5073114;28;20410;-78
2021/08/26 12:02:57;;;;;;;2.17;0.87;;;18.00;99.90;;;;;;5072108;28;20413;-81
2021/08/26 12:05:24;;;;;;;3.33;0.90;;;17.80;99.90;;;;;;5071850;28;20435;-85
2021/08/26 12:07:51;;;;;;;2.88;0.90;;;17.80;99.90;;;;;;5071241;28;20386;-82
2021/08/26 12:10:21;;;;;;;0.80;0.77;;;17.80;99.90;;;;;;5071881;28;20378;-81
2021/08/26 12:12:56;;;;;;;1.77;0.65;;;17.80;99.90;;;;;;5072295;28;20501;-79
2021/08/26 12:15:33;;;;;;;1.55;0.70;;;17.90;99.90;;;;;;5072010;28;20382;-81
2021/08/26 12:18:05;;;;;;;2.08;0.60;;;17.90;99.90;;;;;;5071368;28;20392;-79
2021/08/26 12:20:35;;;;;;;1.92;0.85;;;18.10;99.90;;;;;;5071633;28;20436;-84
2021/08/26 12:23:03;;;;;;;2.65;0.70;;;18.20;99.90;;;;;;5071102;28;20378;-82
2021/08/26 12:25:37;;;;;;;1.70;0.75;;;18.20;99.90;;;;;;5053794;28;20811;-82
2021/08/26 12:28:05;;;;;;;2.53;0.60;;;18.00;99.90;;;;;;5071748;28;20807;-81
2021/08/26 12:30:36;;;;;;;3.28;0.90;;;17.80;99.90;;;;;;5072017;28;20378;-81
2021/08/26 12:33:21;;;;;;;4.20;1.03;;;17.70;99.90;;;;;;5071978;28;20417;-81
2021/08/26 12:35:57;;;;;;;1.73;0.82;;;17.70;99.90;;;;;;5071686;28;20404;-83
2021/08/26 12:38:49;;;;;;;2.50;0.98;;;18.00;99.90;;;;;;5073638;28;20378;-83
2021/08/26 12:41:19;;;;;;;4.13;1.07;;;18.20;99.90;;;;;;5067450;28;20794;-81
2021/08/26 12:43:53;;;;;;;3.30;1.10;;;18.40;99.90;;;;;;5073719;28;20385;-77